sensor_id;sensor_type;location;lat;lon;timestamp;P1;durP1;ratioP1;P2;durP2;ratioP2
74471;SDS011;73591;53.714;10.514;2023-11-21T00:01:49;24.27;;;9.43;;
74471;SDS011;73591;53.714;10.514;2023-11-21T00:04:15;24.55;;;10.13;;
74471;SDS011;73591;53.714;10.514;2023-11-21T00:06:40;22.63;;;10.80;;
74471;SDS011;73591;53.714;10.514;2023-11-21T00:09:06;19.00;;;9.15;;
74471;SDS011;73591;53.714;10.514;2023-11-21T00:11:33;18.65;;;8.75;;
74471;SDS011;73591;53.714;10.514;2023-11-21T00:13:58;17.50;;;7.82;;
74471;SDS011;73591;53.714;10.514;2023-11-21T00:16:24;20.90;;;9.35;;
74471;SDS011;73591;53.714;10.514;2023-11-21T00:18:50;22.10;;;9.27;;
74471;SDS011;73591;53.714;10.514;2023-11-21T00:21:16;20.30;;;9.52;;
74471;SDS011;73591;53.714;10.514;2023-11-21T00:23:41;19.08;;;8.35;;
74471;SDS011;73591;53.714;10.514;2023-11-21T00:26:06;16.30;;;8.18;;
74471;SDS011;73591;53.714;10.514;2023-11-21T00:28:32;17.63;;;7.97;;
74471;SDS011;73591;53.714;10.514;2023-11-21T00:30:57;17.00;;;7.45;;
74471;SDS011;73591;53.714;10.514;2023-11-21T00:33:22;17.48;;;8.05;;
74471;SDS011;73591;53.714;10.514;2023-11-21T00:35:48;14.07;;;6.90;;
74471;SDS011;73591;53.714;10.514;2023-11-21T00:38:13;13.30;;;6.22;;
74471;SDS011;73591;53.714;10.514;2023-11-21T00:40:39;14.52;;;6.00;;
74471;SDS011;73591;53.714;10.514;2023-11-21T00:43:04;11.07;;;5.55;;
74471;SDS011;73591;53.714;10.514;2023-11-21T00:45:30;14.38;;;5.70;;
74471;SDS011;73591;53.714;10.514;2023-11-21T00:47:55;13.82;;;5.50;;
74471;SDS011;73591;53.714;10.514;2023-11-21T00:50:21;12.38;;;4.68;;
74471;SDS011;73591;53.714;10.514;2023-11-21T00:52:46;13.10;;;5.65;;
74471;SDS011;73591;53.714;10.514;2023-11-21T00:55:12;12.32;;;5.68;;
74471;SDS011;73591;53.714;10.514;2023-11-21T00:57:37;9.05;;;4.43;;
74471;SDS011;73591;53.714;10.514;2023-11-21T01:00:03;10.18;;;4.60;;
74471;SDS011;73591;53.714;10.514;2023-11-21T01:02:32;10.13;;;4.57;;
74471;SDS011;73591;53.714;10.514;2023-11-21T01:04:58;10.02;;;5.07;;
74471;SDS011;73591;53.714;10.514;2023-11-21T01:07:23;10.60;;;4.68;;
74471;SDS011;73591;53.714;10.514;2023-11-21T01:09:49;11.90;;;5.38;;
74471;SDS011;73591;53.714;10.514;2023-11-21T01:12:14;9.73;;;5.03;;
74471;SDS011;73591;53.714;10.514;2023-11-21T01:14:39;8.18;;;4.20;;
74471;SDS011;73591;53.714;10.514;2023-11-21T01:17:05;16.05;;;6.32;;
74471;SDS011;73591;53.714;10.514;2023-11-21T01:19:31;13.93;;;6.28;;
74471;SDS011;73591;53.714;10.514;2023-11-21T01:21:56;24.60;;;9.20;;
74471;SDS011;73591;53.714;10.514;2023-11-21T01:24:23;21.17;;;8.35;;
74471;SDS011;73591;53.714;10.514;2023-11-21T01:26:48;15.57;;;7.10;;
74471;SDS011;73591;53.714;10.514;2023-11-21T01:29:13;11.00;;;5.78;;
74471;SDS011;73591;53.714;10.514;2023-11-21T01:31:40;13.43;;;6.10;;
74471;SDS011;73591;53.714;10.514;2023-11-21T01:34:05;13.70;;;6.78;;
74471;SDS011;73591;53.714;10.514;2023-11-21T01:36:31;10.65;;;6.07;;
74471;SDS011;73591;53.714;10.514;2023-11-21T01:39:00;13.68;;;6.10;;
74471;SDS011;73591;53.714;10.514;2023-11-21T01:41:28;13.65;;;6.15;;
74471;SDS011;73591;53.714;10.514;2023-11-21T01:43:54;11.70;;;5.88;;
74471;SDS011;73591;53.714;10.514;2023-11-21T01:46:20;13.10;;;5.38;;
74471;SDS011;73591;53.714;10.514;2023-11-21T01:48:46;14.73;;;5.20;;
74471;SDS011;73591;53.714;10.514;2023-11-21T01:53:38;11.83;;;5.47;;
74471;SDS011;73591;53.714;10.514;2023-11-21T01:56:04;10.02;;;4.75;;
74471;SDS011;73591;53.714;10.514;2023-11-21T01:58:33;11.05;;;5.28;;
74471;SDS011;73591;53.714;10.514;2023-11-21T02:00:58;12.85;;;5.93;;
74471;SDS011;73591;53.714;10.514;2023-11-21T02:03:24;10.15;;;4.95;;
74471;SDS011;73591;53.714;10.514;2023-11-21T02:05:49;11.05;;;5.63;;
74471;SDS011;73591;53.714;10.514;2023-11-21T02:08:14;10.55;;;5.38;;
74471;SDS011;73591;53.714;10.514;2023-11-21T02:10:40;11.85;;;5.07;;
74471;SDS011;73591;53.714;10.514;2023-11-21T02:13:05;11.95;;;6.15;;
74471;SDS011;73591;53.714;10.514;2023-11-21T02:15:31;11.13;;;5.22;;
74471;SDS011;73591;53.714;10.514;2023-11-21T02:17:56;13.60;;;5.68;;
74471;SDS011;73591;53.714;10.514;2023-11-21T02:20:23;15.70;;;7.97;;
74471;SDS011;73591;53.714;10.514;2023-11-21T02:22:50;13.35;;;6.78;;
74471;SDS011;73591;53.714;10.514;2023-11-21T02:25:25;12.98;;;6.70;;
74471;SDS011;73591;53.714;10.514;2023-11-21T02:27:55;12.63;;;5.78;;
74471;SDS011;73591;53.714;10.514;2023-11-21T02:30:21;19.23;;;10.52;;
74471;SDS011;73591;53.714;10.514;2023-11-21T02:32:47;12.60;;;6.20;;
74471;SDS011;73591;53.714;10.514;2023-11-21T02:35:13;12.70;;;6.63;;
74471;SDS011;73591;53.714;10.514;2023-11-21T02:37:39;14.00;;;6.55;;
74471;SDS011;73591;53.714;10.514;2023-11-21T02:40:06;13.82;;;7.60;;
74471;SDS011;73591;53.714;10.514;2023-11-21T02:42:34;13.10;;;7.32;;
74471;SDS011;73591;53.714;10.514;2023-11-21T02:44:59;14.02;;;7.07;;
74471;SDS011;73591;53.714;10.514;2023-11-21T02:47:25;19.23;;;10.00;;
74471;SDS011;73591;53.714;10.514;2023-11-21T02:49:50;13.02;;;6.78;;
74471;SDS011;73591;53.714;10.514;2023-11-21T02:52:17;13.70;;;7.38;;
74471;SDS011;73591;53.714;10.514;2023-11-21T02:54:42;14.70;;;7.78;;
74471;SDS011;73591;53.714;10.514;2023-11-21T02:57:07;12.75;;;7.53;;
74471;SDS011;73591;53.714;10.514;2023-11-21T02:59:33;12.82;;;6.05;;
74471;SDS011;73591;53.714;10.514;2023-11-21T03:01:58;14.02;;;6.25;;
74471;SDS011;73591;53.714;10.514;2023-11-21T03:04:24;12.55;;;6.53;;
74471;SDS011;73591;53.714;10.514;2023-11-21T03:06:49;11.60;;;5.20;;
74471;SDS011;73591;53.714;10.514;2023-11-21T03:09:14;12.52;;;6.65;;
74471;SDS011;73591;53.714;10.514;2023-11-21T03:11:41;11.25;;;5.38;;
74471;SDS011;73591;53.714;10.514;2023-11-21T03:14:07;11.48;;;4.70;;
74471;SDS011;73591;53.714;10.514;2023-11-21T03:16:32;12.20;;;5.75;;
74471;SDS011;73591;53.714;10.514;2023-11-21T03:18:57;13.02;;;5.65;;
74471;SDS011;73591;53.714;10.514;2023-11-21T03:21:23;13.50;;;4.97;;
74471;SDS011;73591;53.714;10.514;2023-11-21T03:23:49;11.13;;;5.03;;
74471;SDS011;73591;53.714;10.514;2023-11-21T03:26:15;11.35;;;5.45;;
74471;SDS011;73591;53.714;10.514;2023-11-21T03:28:40;11.35;;;5.38;;
74471;SDS011;73591;53.714;10.514;2023-11-21T03:31:06;12.05;;;5.57;;
74471;SDS011;73591;53.714;10.514;2023-11-21T03:33:31;11.85;;;5.65;;
74471;SDS011;73591;53.714;10.514;2023-11-21T03:35:57;11.10;;;5.55;;
74471;SDS011;73591;53.714;10.514;2023-11-21T03:38:23;11.40;;;5.45;;
74471;SDS011;73591;53.714;10.514;2023-11-21T03:40:48;10.50;;;5.20;;
74471;SDS011;73591;53.714;10.514;2023-11-21T03:43:13;10.93;;;5.90;;
74471;SDS011;73591;53.714;10.514;2023-11-21T03:45:39;10.70;;;4.82;;
74471;SDS011;73591;53.714;10.514;2023-11-21T03:48:05;10.15;;;4.97;;
74471;SDS011;73591;53.714;10.514;2023-11-21T03:50:31;10.20;;;5.28;;
74471;SDS011;73591;53.714;10.514;2023-11-21T03:52:56;13.50;;;4.80;;
74471;SDS011;73591;53.714;10.514;2023-11-21T03:55:22;11.18;;;5.35;;
74471;SDS011;73591;53.714;10.514;2023-11-21T03:57:49;10.65;;;4.97;;
74471;SDS011;73591;53.714;10.514;2023-11-21T04:00:14;11.07;;;5.47;;
74471;SDS011;73591;53.714;10.514;2023-11-21T04:02:40;10.70;;;5.03;;
74471;SDS011;73591;53.714;10.514;2023-11-21T04:05:05;11.82;;;5.78;;
74471;SDS011;73591;53.714;10.514;2023-11-21T04:07:32;9.70;;;4.53;;
74471;SDS011;73591;53.714;10.514;2023-11-21T04:09:57;10.55;;;4.80;;
74471;SDS011;73591;53.714;10.514;2023-11-21T04:12:23;12.25;;;5.93;;
74471;SDS011;73591;53.714;10.514;2023-11-21T04:14:48;13.23;;;5.30;;
74471;SDS011;73591;53.714;10.514;2023-11-21T04:17:13;10.80;;;5.43;;
74471;SDS011;73591;53.714;10.514;2023-11-21T04:19:38;12.38;;;4.90;;
74471;SDS011;73591;53.714;10.514;2023-11-21T04:22:04;8.75;;;4.65;;
74471;SDS011;73591;53.714;10.514;2023-11-21T04:24:29;10.52;;;4.93;;
74471;SDS011;73591;53.714;10.514;2023-11-21T04:26:54;11.15;;;4.90;;
74471;SDS011;73591;53.714;10.514;2023-11-21T04:29:20;11.18;;;5.30;;
74471;SDS011;73591;53.714;10.514;2023-11-21T04:31:45;11.75;;;5.60;;
74471;SDS011;73591;53.714;10.514;2023-11-21T04:34:11;14.07;;;5.10;;
74471;SDS011;73591;53.714;10.514;2023-11-21T04:36:36;10.13;;;5.18;;
74471;SDS011;73591;53.714;10.514;2023-11-21T04:39:02;9.93;;;5.30;;
74471;SDS011;73591;53.714;10.514;2023-11-21T04:41:27;11.65;;;6.60;;
74471;SDS011;73591;53.714;10.514;2023-11-21T04:43:53;12.82;;;5.07;;
74471;SDS011;73591;53.714;10.514;2023-11-21T04:46:18;13.45;;;4.95;;
74471;SDS011;73591;53.714;10.514;2023-11-21T04:48:43;14.55;;;5.03;;
74471;SDS011;73591;53.714;10.514;2023-11-21T04:51:09;10.25;;;5.22;;
74471;SDS011;73591;53.714;10.514;2023-11-21T04:53:34;13.20;;;5.55;;
74471;SDS011;73591;53.714;10.514;2023-11-21T04:56:00;15.30;;;7.15;;
74471;SDS011;73591;53.714;10.514;2023-11-21T04:58:25;9.48;;;4.97;;
74471;SDS011;73591;53.714;10.514;2023-11-21T05:00:51;12.52;;;6.50;;
74471;SDS011;73591;53.714;10.514;2023-11-21T05:03:16;10.95;;;5.05;;
74471;SDS011;73591;53.714;10.514;2023-11-21T05:05:41;11.55;;;6.25;;
74471;SDS011;73591;53.714;10.514;2023-11-21T05:08:07;10.65;;;6.20;;
74471;SDS011;73591;53.714;10.514;2023-11-21T05:10:33;10.88;;;5.43;;
74471;SDS011;73591;53.714;10.514;2023-11-21T05:12:59;10.30;;;5.40;;
74471;SDS011;73591;53.714;10.514;2023-11-21T05:15:24;11.00;;;5.75;;
74471;SDS011;73591;53.714;10.514;2023-11-21T05:17:49;12.13;;;6.13;;
74471;SDS011;73591;53.714;10.514;2023-11-21T05:20:17;9.95;;;5.35;;
74471;SDS011;73591;53.714;10.514;2023-11-21T05:22:45;13.07;;;5.88;;
74471;SDS011;73591;53.714;10.514;2023-11-21T05:25:11;12.43;;;6.03;;
74471;SDS011;73591;53.714;10.514;2023-11-21T05:27:37;12.90;;;7.25;;
74471;SDS011;73591;53.714;10.514;2023-11-21T05:30:03;12.00;;;6.03;;
74471;SDS011;73591;53.714;10.514;2023-11-21T05:32:34;11.43;;;5.95;;
74471;SDS011;73591;53.714;10.514;2023-11-21T05:34:59;10.95;;;5.88;;
74471;SDS011;73591;53.714;10.514;2023-11-21T05:37:25;13.23;;;6.50;;
74471;SDS011;73591;53.714;10.514;2023-11-21T05:39:52;11.60;;;5.65;;
74471;SDS011;73591;53.714;10.514;2023-11-21T05:42:18;12.13;;;5.60;;
74471;SDS011;73591;53.714;10.514;2023-11-21T05:44:43;10.70;;;5.78;;
74471;SDS011;73591;53.714;10.514;2023-11-21T05:47:08;10.32;;;6.13;;
74471;SDS011;73591;53.714;10.514;2023-11-21T05:49:34;11.02;;;5.63;;
74471;SDS011;73591;53.714;10.514;2023-11-21T05:52:00;12.52;;;5.97;;
74471;SDS011;73591;53.714;10.514;2023-11-21T05:54:25;12.35;;;5.88;;
74471;SDS011;73591;53.714;10.514;2023-11-21T05:56:51;10.75;;;5.85;;
74471;SDS011;73591;53.714;10.514;2023-11-21T05:59:16;9.70;;;4.90;;
74471;SDS011;73591;53.714;10.514;2023-11-21T06:01:41;11.55;;;5.78;;
74471;SDS011;73591;53.714;10.514;2023-11-21T06:04:07;12.20;;;6.57;;
74471;SDS011;73591;53.714;10.514;2023-11-21T06:06:35;12.27;;;5.10;;
74471;SDS011;73591;53.714;10.514;2023-11-21T06:09:01;9.32;;;4.90;;
74471;SDS011;73591;53.714;10.514;2023-11-21T06:11:26;12.05;;;4.78;;
74471;SDS011;73591;53.714;10.514;2023-11-21T06:13:52;9.43;;;4.93;;
74471;SDS011;73591;53.714;10.514;2023-11-21T06:16:18;9.40;;;4.68;;
74471;SDS011;73591;53.714;10.514;2023-11-21T06:18:44;14.93;;;5.20;;
74471;SDS011;73591;53.714;10.514;2023-11-21T06:21:10;10.13;;;4.90;;
74471;SDS011;73591;53.714;10.514;2023-11-21T06:23:36;12.02;;;5.18;;
74471;SDS011;73591;53.714;10.514;2023-11-21T06:26:01;9.50;;;5.10;;
74471;SDS011;73591;53.714;10.514;2023-11-21T06:28:26;12.50;;;4.85;;
74471;SDS011;73591;53.714;10.514;2023-11-21T06:30:52;9.10;;;4.80;;
74471;SDS011;73591;53.714;10.514;2023-11-21T06:33:18;9.30;;;4.78;;
74471;SDS011;73591;53.714;10.514;2023-11-21T06:35:43;9.30;;;4.70;;
74471;SDS011;73591;53.714;10.514;2023-11-21T06:38:10;11.52;;;4.90;;
74471;SDS011;73591;53.714;10.514;2023-11-21T06:40:35;7.82;;;4.25;;
74471;SDS011;73591;53.714;10.514;2023-11-21T06:43:00;8.57;;;4.70;;
74471;SDS011;73591;53.714;10.514;2023-11-21T06:45:26;9.70;;;5.05;;
74471;SDS011;73591;53.714;10.514;2023-11-21T06:47:51;10.68;;;5.53;;
74471;SDS011;73591;53.714;10.514;2023-11-21T06:50:17;8.18;;;4.32;;
74471;SDS011;73591;53.714;10.514;2023-11-21T06:52:42;9.85;;;4.82;;
74471;SDS011;73591;53.714;10.514;2023-11-21T06:55:14;9.10;;;4.82;;
74471;SDS011;73591;53.714;10.514;2023-11-21T06:57:42;12.10;;;5.63;;
74471;SDS011;73591;53.714;10.514;2023-11-21T07:00:08;8.27;;;4.35;;
74471;SDS011;73591;53.714;10.514;2023-11-21T07:02:34;8.93;;;4.05;;
74471;SDS011;73591;53.714;10.514;2023-11-21T07:04:59;7.78;;;4.43;;
74471;SDS011;73591;53.714;10.514;2023-11-21T07:07:25;9.07;;;3.92;;
74471;SDS011;73591;53.714;10.514;2023-11-21T07:09:52;11.98;;;4.47;;
74471;SDS011;73591;53.714;10.514;2023-11-21T07:12:17;9.35;;;4.97;;
74471;SDS011;73591;53.714;10.514;2023-11-21T07:14:43;10.07;;;4.22;;
74471;SDS011;73591;53.714;10.514;2023-11-21T07:17:09;8.93;;;3.88;;
74471;SDS011;73591;53.714;10.514;2023-11-21T07:19:38;8.45;;;3.83;;
74471;SDS011;73591;53.714;10.514;2023-11-21T07:22:03;8.15;;;4.00;;
74471;SDS011;73591;53.714;10.514;2023-11-21T07:24:30;8.95;;;3.97;;
74471;SDS011;73591;53.714;10.514;2023-11-21T07:26:56;9.88;;;4.57;;
74471;SDS011;73591;53.714;10.514;2023-11-21T07:29:23;9.18;;;4.03;;
74471;SDS011;73591;53.714;10.514;2023-11-21T07:31:50;7.93;;;3.67;;
74471;SDS011;73591;53.714;10.514;2023-11-21T07:34:16;9.65;;;3.53;;
74471;SDS011;73591;53.714;10.514;2023-11-21T07:36:41;6.97;;;3.70;;
74471;SDS011;73591;53.714;10.514;2023-11-21T07:39:07;7.22;;;3.67;;
74471;SDS011;73591;53.714;10.514;2023-11-21T07:41:32;12.07;;;3.67;;
74471;SDS011;73591;53.714;10.514;2023-11-21T07:43:58;7.55;;;3.58;;
74471;SDS011;73591;53.714;10.514;2023-11-21T07:46:23;10.02;;;3.70;;
74471;SDS011;73591;53.714;10.514;2023-11-21T07:48:49;5.93;;;3.15;;
74471;SDS011;73591;53.714;10.514;2023-11-21T07:51:14;5.90;;;2.85;;
74471;SDS011;73591;53.714;10.514;2023-11-21T07:53:40;12.57;;;3.13;;
74471;SDS011;73591;53.714;10.514;2023-11-21T07:56:06;6.28;;;2.45;;
74471;SDS011;73591;53.714;10.514;2023-11-21T07:58:35;4.78;;;2.20;;
74471;SDS011;73591;53.714;10.514;2023-11-21T08:01:01;5.63;;;2.92;;
74471;SDS011;73591;53.714;10.514;2023-11-21T08:03:30;5.50;;;2.53;;
74471;SDS011;73591;53.714;10.514;2023-11-21T08:05:56;5.63;;;3.20;;
74471;SDS011;73591;53.714;10.514;2023-11-21T08:08:22;5.30;;;2.42;;
74471;SDS011;73591;53.714;10.514;2023-11-21T08:10:48;7.35;;;2.38;;
74471;SDS011;73591;53.714;10.514;2023-11-21T08:13:21;4.85;;;2.25;;
74471;SDS011;73591;53.714;10.514;2023-11-21T08:15:47;6.63;;;2.40;;
74471;SDS011;73591;53.714;10.514;2023-11-21T08:18:12;7.35;;;2.88;;
74471;SDS011;73591;53.714;10.514;2023-11-21T08:20:39;5.47;;;2.70;;
74471;SDS011;73591;53.714;10.514;2023-11-21T08:23:05;7.72;;;3.35;;
74471;SDS011;73591;53.714;10.514;2023-11-21T08:25:31;5.10;;;2.47;;
74471;SDS011;73591;53.714;10.514;2023-11-21T08:27:56;5.00;;;2.20;;
74471;SDS011;73591;53.714;10.514;2023-11-21T08:30:22;5.15;;;2.70;;
74471;SDS011;73591;53.714;10.514;2023-11-21T08:32:49;7.05;;;2.10;;
74471;SDS011;73591;53.714;10.514;2023-11-21T08:35:14;4.50;;;2.45;;
74471;SDS011;73591;53.714;10.514;2023-11-21T08:37:40;4.65;;;2.13;;
74471;SDS011;73591;53.714;10.514;2023-11-21T08:40:06;5.15;;;2.40;;
74471;SDS011;73591;53.714;10.514;2023-11-21T08:42:37;5.13;;;2.13;;
74471;SDS011;73591;53.714;10.514;2023-11-21T08:45:02;7.70;;;2.85;;
74471;SDS011;73591;53.714;10.514;2023-11-21T08:47:28;4.50;;;2.20;;
74471;SDS011;73591;53.714;10.514;2023-11-21T08:49:54;4.53;;;2.00;;
74471;SDS011;73591;53.714;10.514;2023-11-21T08:52:19;3.97;;;2.20;;
74471;SDS011;73591;53.714;10.514;2023-11-21T08:54:51;4.78;;;2.15;;
74471;SDS011;73591;53.714;10.514;2023-11-21T08:57:24;4.78;;;2.67;;
74471;SDS011;73591;53.714;10.514;2023-11-21T08:59:50;4.40;;;2.45;;
74471;SDS011;73591;53.714;10.514;2023-11-21T09:02:21;5.43;;;1.92;;
74471;SDS011;73591;53.714;10.514;2023-11-21T09:04:48;5.05;;;2.00;;
74471;SDS011;73591;53.714;10.514;2023-11-21T09:07:13;4.05;;;2.13;;
74471;SDS011;73591;53.714;10.514;2023-11-21T09:09:38;4.85;;;2.33;;
74471;SDS011;73591;53.714;10.514;2023-11-21T09:12:04;4.18;;;1.98;;
74471;SDS011;73591;53.714;10.514;2023-11-21T09:14:29;4.50;;;2.20;;
74471;SDS011;73591;53.714;10.514;2023-11-21T09:16:55;6.10;;;2.08;;
74471;SDS011;73591;53.714;10.514;2023-11-21T09:19:21;5.82;;;2.20;;
74471;SDS011;73591;53.714;10.514;2023-11-21T09:21:46;6.97;;;2.47;;
74471;SDS011;73591;53.714;10.514;2023-11-21T09:24:12;5.80;;;2.17;;
74471;SDS011;73591;53.714;10.514;2023-11-21T09:26:37;5.22;;;2.50;;
74471;SDS011;73591;53.714;10.514;2023-11-21T09:29:02;5.72;;;2.70;;
74471;SDS011;73591;53.714;10.514;2023-11-21T09:31:28;5.60;;;2.67;;
74471;SDS011;73591;53.714;10.514;2023-11-21T09:33:53;5.63;;;2.85;;
74471;SDS011;73591;53.714;10.514;2023-11-21T09:36:18;5.22;;;2.70;;
74471;SDS011;73591;53.714;10.514;2023-11-21T09:38:44;6.95;;;3.85;;
74471;SDS011;73591;53.714;10.514;2023-11-21T09:41:11;5.97;;;2.47;;
74471;SDS011;73591;53.714;10.514;2023-11-21T09:46:09;5.18;;;2.45;;
74471;SDS011;73591;53.714;10.514;2023-11-21T09:48:37;6.68;;;2.75;;
74471;SDS011;73591;53.714;10.514;2023-11-21T09:51:04;6.55;;;3.17;;
74471;SDS011;73591;53.714;10.514;2023-11-21T09:53:29;6.85;;;2.80;;
74471;SDS011;73591;53.714;10.514;2023-11-21T09:58:21;5.63;;;2.83;;
74471;SDS011;73591;53.714;10.514;2023-11-21T10:00:51;6.20;;;2.97;;
74471;SDS011;73591;53.714;10.514;2023-11-21T10:03:18;5.00;;;2.47;;
74471;SDS011;73591;53.714;10.514;2023-11-21T10:05:43;7.45;;;3.13;;
74471;SDS011;73591;53.714;10.514;2023-11-21T10:08:11;4.97;;;2.67;;
74471;SDS011;73591;53.714;10.514;2023-11-21T10:10:37;4.78;;;2.50;;
74471;SDS011;73591;53.714;10.514;2023-11-21T10:15:35;5.45;;;2.60;;
74471;SDS011;73591;53.714;10.514;2023-11-21T10:18:01;6.00;;;2.30;;
74471;SDS011;73591;53.714;10.514;2023-11-21T10:20:28;5.60;;;2.28;;
74471;SDS011;73591;53.714;10.514;2023-11-21T10:22:54;5.53;;;2.33;;
74471;SDS011;73591;53.714;10.514;2023-11-21T10:25:19;4.70;;;2.30;;
74471;SDS011;73591;53.714;10.514;2023-11-21T10:27:47;4.38;;;1.92;;
74471;SDS011;73591;53.714;10.514;2023-11-21T10:30:13;4.95;;;1.92;;
74471;SDS011;73591;53.714;10.514;2023-11-21T10:32:41;4.70;;;2.42;;
74471;SDS011;73591;53.714;10.514;2023-11-21T10:35:09;4.63;;;2.13;;
74471;SDS011;73591;53.714;10.514;2023-11-21T10:37:38;4.80;;;2.35;;
74471;SDS011;73591;53.714;10.514;2023-11-21T10:40:10;5.35;;;2.70;;
74471;SDS011;73591;53.714;10.514;2023-11-21T10:42:37;5.35;;;2.55;;
74471;SDS011;73591;53.714;10.514;2023-11-21T10:45:05;4.75;;;2.28;;
74471;SDS011;73591;53.714;10.514;2023-11-21T10:47:38;8.25;;;2.33;;
74471;SDS011;73591;53.714;10.514;2023-11-21T10:50:07;5.55;;;2.90;;
74471;SDS011;73591;53.714;10.514;2023-11-21T10:52:36;5.00;;;2.47;;
74471;SDS011;73591;53.714;10.514;2023-11-21T10:55:16;6.15;;;2.80;;
74471;SDS011;73591;53.714;10.514;2023-11-21T10:57:42;5.50;;;2.60;;
74471;SDS011;73591;53.714;10.514;2023-11-21T11:00:09;5.53;;;2.65;;
74471;SDS011;73591;53.714;10.514;2023-11-21T11:02:38;5.35;;;2.75;;
74471;SDS011;73591;53.714;10.514;2023-11-21T11:05:04;4.53;;;2.30;;
74471;SDS011;73591;53.714;10.514;2023-11-21T11:07:31;5.97;;;2.10;;
74471;SDS011;73591;53.714;10.514;2023-11-21T11:09:59;5.47;;;2.22;;
74471;SDS011;73591;53.714;10.514;2023-11-21T11:12:25;5.03;;;2.30;;
74471;SDS011;73591;53.714;10.514;2023-11-21T11:14:51;4.97;;;2.58;;
74471;SDS011;73591;53.714;10.514;2023-11-21T11:17:17;5.90;;;3.00;;
74471;SDS011;73591;53.714;10.514;2023-11-21T11:19:45;6.03;;;2.65;;
74471;SDS011;73591;53.714;10.514;2023-11-21T11:22:23;6.13;;;2.22;;
74471;SDS011;73591;53.714;10.514;2023-11-21T11:28:03;3.72;;;2.03;;
74471;SDS011;73591;53.714;10.514;2023-11-21T11:36:10;7.97;;;2.42;;
74471;SDS011;73591;53.714;10.514;2023-11-21T11:39:00;5.43;;;3.08;;
74471;SDS011;73591;53.714;10.514;2023-11-21T11:41:27;6.00;;;2.30;;
74471;SDS011;73591;53.714;10.514;2023-11-21T11:43:57;5.32;;;2.35;;
74471;SDS011;73591;53.714;10.514;2023-11-21T11:46:42;5.90;;;2.67;;
74471;SDS011;73591;53.714;10.514;2023-11-21T11:49:11;6.80;;;3.10;;
74471;SDS011;73591;53.714;10.514;2023-11-21T11:51:57;5.07;;;2.72;;
74471;SDS011;73591;53.714;10.514;2023-11-21T11:54:54;5.78;;;3.17;;
74471;SDS011;73591;53.714;10.514;2023-11-21T11:57:23;5.78;;;2.67;;
74471;SDS011;73591;53.714;10.514;2023-11-21T12:02:50;5.20;;;3.13;;
74471;SDS011;73591;53.714;10.514;2023-11-21T12:05:17;5.07;;;2.63;;
74471;SDS011;73591;53.714;10.514;2023-11-21T12:07:49;5.85;;;2.78;;
74471;SDS011;73591;53.714;10.514;2023-11-21T12:10:19;5.22;;;2.33;;
74471;SDS011;73591;53.714;10.514;2023-11-21T12:12:46;4.90;;;2.60;;
74471;SDS011;73591;53.714;10.514;2023-11-21T12:15:17;4.35;;;2.28;;
74471;SDS011;73591;53.714;10.514;2023-11-21T12:17:43;6.00;;;2.53;;
74471;SDS011;73591;53.714;10.514;2023-11-21T12:20:09;5.65;;;2.70;;
74471;SDS011;73591;53.714;10.514;2023-11-21T12:22:49;5.47;;;2.33;;
74471;SDS011;73591;53.714;10.514;2023-11-21T12:27:45;4.90;;;2.50;;
74471;SDS011;73591;53.714;10.514;2023-11-21T12:30:11;5.40;;;2.72;;
74471;SDS011;73591;53.714;10.514;2023-11-21T12:32:42;4.95;;;2.42;;
74471;SDS011;73591;53.714;10.514;2023-11-21T12:35:13;8.02;;;2.13;;
74471;SDS011;73591;53.714;10.514;2023-11-21T12:37:39;4.85;;;2.05;;
74471;SDS011;73591;53.714;10.514;2023-11-21T12:40:05;6.78;;;2.53;;
74471;SDS011;73591;53.714;10.514;2023-11-21T12:42:32;5.28;;;2.40;;
74471;SDS011;73591;53.714;10.514;2023-11-21T12:45:40;6.25;;;2.45;;
74471;SDS011;73591;53.714;10.514;2023-11-21T12:47:49;5.88;;;2.40;;
74471;SDS011;73591;53.714;10.514;2023-11-21T12:50:18;4.43;;;2.05;;
74471;SDS011;73591;53.714;10.514;2023-11-21T12:52:49;5.95;;;2.83;;
74471;SDS011;73591;53.714;10.514;2023-11-21T12:55:16;5.53;;;2.30;;
74471;SDS011;73591;53.714;10.514;2023-11-21T12:57:45;7.18;;;2.22;;
74471;SDS011;73591;53.714;10.514;2023-11-21T13:00:16;6.90;;;2.92;;
74471;SDS011;73591;53.714;10.514;2023-11-21T13:02:55;7.38;;;2.15;;
74471;SDS011;73591;53.714;10.514;2023-11-21T13:05:28;4.78;;;2.13;;
74471;SDS011;73591;53.714;10.514;2023-11-21T13:07:54;5.88;;;2.08;;
74471;SDS011;73591;53.714;10.514;2023-11-21T13:10:23;4.03;;;2.05;;
74471;SDS011;73591;53.714;10.514;2023-11-21T13:12:51;6.70;;;2.40;;
74471;SDS011;73591;53.714;10.514;2023-11-21T13:15:17;6.43;;;2.30;;
74471;SDS011;73591;53.714;10.514;2023-11-21T13:17:43;4.50;;;2.35;;
74471;SDS011;73591;53.714;10.514;2023-11-21T13:20:12;6.45;;;2.53;;
74471;SDS011;73591;53.714;10.514;2023-11-21T13:23:06;6.05;;;2.40;;
74471;SDS011;73591;53.714;10.514;2023-11-21T13:25:32;4.95;;;2.10;;
74471;SDS011;73591;53.714;10.514;2023-11-21T13:27:58;5.82;;;2.40;;
74471;SDS011;73591;53.714;10.514;2023-11-21T13:30:24;4.95;;;2.20;;
74471;SDS011;73591;53.714;10.514;2023-11-21T13:32:54;4.70;;;1.63;;
74471;SDS011;73591;53.714;10.514;2023-11-21T13:35:22;5.00;;;1.85;;
74471;SDS011;73591;53.714;10.514;2023-11-21T13:38:07;4.10;;;1.45;;
74471;SDS011;73591;53.714;10.514;2023-11-21T13:40:34;3.92;;;1.83;;
74471;SDS011;73591;53.714;10.514;2023-11-21T13:43:07;4.20;;;1.58;;
74471;SDS011;73591;53.714;10.514;2023-11-21T13:45:35;7.75;;;1.75;;
74471;SDS011;73591;53.714;10.514;2023-11-21T13:48:01;4.13;;;1.58;;
74471;SDS011;73591;53.714;10.514;2023-11-21T13:50:27;4.32;;;1.63;;
74471;SDS011;73591;53.714;10.514;2023-11-21T13:52:59;5.22;;;1.90;;
74471;SDS011;73591;53.714;10.514;2023-11-21T13:55:29;3.85;;;1.42;;
74471;SDS011;73591;53.714;10.514;2023-11-21T13:57:55;5.72;;;1.88;;
74471;SDS011;73591;53.714;10.514;2023-11-21T14:00:20;3.30;;;1.75;;
74471;SDS011;73591;53.714;10.514;2023-11-21T14:03:04;3.92;;;1.20;;
74471;SDS011;73591;53.714;10.514;2023-11-21T14:05:34;4.57;;;1.58;;
74471;SDS011;73591;53.714;10.514;2023-11-21T14:07:59;5.05;;;1.83;;
74471;SDS011;73591;53.714;10.514;2023-11-21T14:10:32;9.25;;;1.67;;
74471;SDS011;73591;53.714;10.514;2023-11-21T14:13:05;3.20;;;1.50;;
74471;SDS011;73591;53.714;10.514;2023-11-21T14:15:30;4.88;;;1.63;;
74471;SDS011;73591;53.714;10.514;2023-11-21T14:17:57;3.33;;;1.42;;
74471;SDS011;73591;53.714;10.514;2023-11-21T14:20:24;6.10;;;2.30;;
74471;SDS011;73591;53.714;10.514;2023-11-21T14:22:50;4.13;;;1.88;;
74471;SDS011;73591;53.714;10.514;2023-11-21T14:25:15;3.63;;;1.52;;
74471;SDS011;73591;53.714;10.514;2023-11-21T14:27:42;3.47;;;1.55;;
74471;SDS011;73591;53.714;10.514;2023-11-21T14:30:08;5.45;;;1.38;;
74471;SDS011;73591;53.714;10.514;2023-11-21T14:32:33;3.95;;;1.30;;
74471;SDS011;73591;53.714;10.514;2023-11-21T14:34:58;3.88;;;1.65;;
74471;SDS011;73591;53.714;10.514;2023-11-21T14:37:24;4.22;;;1.30;;
74471;SDS011;73591;53.714;10.514;2023-11-21T14:39:50;2.80;;;1.08;;
74471;SDS011;73591;53.714;10.514;2023-11-21T14:42:15;3.33;;;1.40;;
74471;SDS011;73591;53.714;10.514;2023-11-21T14:44:41;3.85;;;1.35;;
74471;SDS011;73591;53.714;10.514;2023-11-21T14:47:07;5.10;;;1.33;;
74471;SDS011;73591;53.714;10.514;2023-11-21T14:49:42;2.63;;;1.13;;
74471;SDS011;73591;53.714;10.514;2023-11-21T14:52:21;4.68;;;1.55;;